sensor_id;sensor_type;location;lat;lon;timestamp;pressure;altitude;pressure_sealevel;temperature;humidity
22580;BME280;11456;47.030;15.396;2023-04-15T00:00:55;96134.25;;;7.14;100.00
22580;BME280;11456;47.030;15.396;2023-04-15T00:03:22;96135.44;;;7.19;100.00
22580;BME280;11456;47.030;15.396;2023-04-15T00:05:50;96133.75;;;7.35;100.00
22580;BME280;11456;47.030;15.396;2023-04-15T00:08:17;96127.56;;;7.18;100.00
22580;BME280;11456;47.030;15.396;2023-04-15T00:10:43;96117.88;;;7.09;100.00
22580;BME280;11456;47.030;15.396;2023-04-15T00:13:11;96124.72;;;7.36;100.00
22580;BME280;11456;47.030;15.396;2023-04-15T00:15:38;96122.72;;;7.30;100.00
22580;BME280;11456;47.030;15.396;2023-04-15T00:18:05;96113.47;;;7.48;100.00
22580;BME280;11456;47.030;15.396;2023-04-15T00:20:33;96119.00;;;7.39;100.00
22580;BME280;11456;47.030;15.396;2023-04-15T00:23:01;96123.88;;;7.35;100.00
22580;BME280;11456;47.030;15.396;2023-04-15T00:25:28;96119.19;;;7.13;100.00
22580;BME280;11456;47.030;15.396;2023-04-15T00:27:55;96113.16;;;7.19;100.00
22580;BME280;11456;47.030;15.396;2023-04-15T00:30:22;96116.53;;;7.21;100.00
22580;BME280;11456;47.030;15.396;2023-04-15T00:32:49;96121.38;;;7.17;100.00
22580;BME280;11456;47.030;15.396;2023-04-15T00:35:19;96115.34;;;7.23;100.00
22580;BME280;11456;47.030;15.396;2023-04-15T00:37:48;96121.03;;;7.20;100.00
22580;BME280;11456;47.030;15.396;2023-04-15T00:40:15;96116.53;;;7.21;100.00
22580;BME280;11456;47.030;15.396;2023-04-15T00:42:43;96121.56;;;7.16;100.00
22580;BME280;11456;47.030;15.396;2023-04-15T00:45:10;96127.75;;;7.08;100.00
22580;BME280;11456;47.030;15.396;2023-04-15T00:47:39;96123.72;;;7.12;100.00
22580;BME280;11456;47.030;15.396;2023-04-15T00:50:07;96123.03;;;7.35;100.00
22580;BME280;11456;47.030;15.396;2023-04-15T00:52:33;96115.34;;;7.23;100.00
22580;BME280;11456;47.030;15.396;2023-04-15T00:55:00;96122.03;;;7.11;100.00
22580;BME280;11456;47.030;15.396;2023-04-15T00:57:28;96125.06;;;7.00;100.00
22580;BME280;11456;47.030;15.396;2023-04-15T00:59:55;96113.16;;;7.19;100.00
22580;BME280;11456;47.030;15.396;2023-04-15T01:02:22;96114.03;;;7.03;100.00
22580;BME280;11456;47.030;15.396;2023-04-15T01:04:49;96117.56;;;7.04;100.00
22580;BME280;11456;47.030;15.396;2023-04-15T01:07:16;96111.69;;;6.92;100.00
22580;BME280;11456;47.030;15.396;2023-04-15T01:09:42;96109.00;;;7.08;100.00
22580;BME280;11456;47.030;15.396;2023-04-15T01:12:09;96116.69;;;7.11;100.00
22580;BME280;11456;47.030;15.396;2023-04-15T01:14:38;96120.88;;;7.14;100.00
22580;BME280;11456;47.030;15.396;2023-04-15T01:17:04;96118.53;;;6.87;100.00
22580;BME280;11456;47.030;15.396;2023-04-15T01:19:31;96117.38;;;6.89;100.00
22580;BME280;11456;47.030;15.396;2023-04-15T01:21:58;96115.03;;;6.78;100.00
22580;BME280;11456;47.030;15.396;2023-04-15T01:24:25;96116.34;;;6.98;100.00
22580;BME280;11456;47.030;15.396;2023-04-15T01:26:53;96122.75;;;6.97;100.00
22580;BME280;11456;47.030;15.396;2023-04-15T01:29:19;96123.38;;;6.99;100.00
22580;BME280;11456;47.030;15.396;2023-04-15T01:31:50;96122.38;;;7.00;100.00
22580;BME280;11456;47.030;15.396;2023-04-15T01:34:17;96118.88;;;6.92;100.00
22580;BME280;11456;47.030;15.396;2023-04-15T01:36:45;96112.88;;;6.90;100.00
22580;BME280;11456;47.030;15.396;2023-04-15T01:39:12;96122.03;;;6.79;100.00
22580;BME280;11456;47.030;15.396;2023-04-15T01:41:39;96124.88;;;6.85;100.00
22580;BME280;11456;47.030;15.396;2023-04-15T01:44:07;96127.06;;;6.82;100.00
22580;BME280;11456;47.030;15.396;2023-04-15T01:46:34;96117.38;;;6.89;100.00
22580;BME280;11456;47.030;15.396;2023-04-15T01:49:02;96127.75;;;6.76;100.00
22580;BME280;11456;47.030;15.396;2023-04-15T01:51:30;96122.03;;;6.79;100.00
22580;BME280;11456;47.030;15.396;2023-04-15T01:53:58;96115.53;;;6.81;100.00
22580;BME280;11456;47.030;15.396;2023-04-15T01:56:26;96126.56;;;6.87;100.00
22580;BME280;11456;47.030;15.396;2023-04-15T01:58:54;96116.53;;;6.89;100.00
22580;BME280;11456;47.030;15.396;2023-04-15T02:01:23;96126.06;;;6.75;100.00
22580;BME280;11456;47.030;15.396;2023-04-15T02:03:50;96130.06;;;6.79;100.00
22580;BME280;11456;47.030;15.396;2023-04-15T02:06:17;96129.72;;;6.74;100.00
22580;BME280;11456;47.030;15.396;2023-04-15T02:08:45;96135.75;;;6.68;100.00
22580;BME280;11456;47.030;15.396;2023-04-15T02:11:12;96127.75;;;6.76;100.00
22580;BME280;11456;47.030;15.396;2023-04-15T02:13:39;96129.09;;;6.96;100.00
22580;BME280;11456;47.030;15.396;2023-04-15T02:16:14;96129.41;;;6.93;100.00
22580;BME280;11456;47.030;15.396;2023-04-15T02:18:45;96134.59;;;6.95;100.00
22580;BME280;11456;47.030;15.396;2023-04-15T02:21:13;96126.72;;;6.93;100.00
22580;BME280;11456;47.030;15.396;2023-04-15T02:23:40;96128.25;;;6.96;100.00
22580;BME280;11456;47.030;15.396;2023-04-15T02:26:07;96135.78;;;7.00;100.00
22580;BME280;11456;47.030;15.396;2023-04-15T02:28:34;96134.94;;;7.08;100.00
22580;BME280;11456;47.030;15.396;2023-04-15T02:31:10;96143.66;;;7.10;100.00
22580;BME280;11456;47.030;15.396;2023-04-15T02:33:37;96136.09;;;7.13;100.00
22580;BME280;11456;47.030;15.396;2023-04-15T02:36:04;96139.44;;;6.99;100.00
22580;BME280;11456;47.030;15.396;2023-04-15T02:38:32;96140.63;;;6.97;100.00
22580;BME280;11456;47.030;15.396;2023-04-15T02:40:59;96143.47;;;6.95;100.00
22580;BME280;11456;47.030;15.396;2023-04-15T02:43:27;96134.75;;;6.93;100.00
22580;BME280;11456;47.030;15.396;2023-04-15T02:45:54;96139.63;;;6.90;100.00
22580;BME280;11456;47.030;15.396;2023-04-15T02:48:21;96136.13;;;6.97;100.00
22580;BME280;11456;47.030;15.396;2023-04-15T02:50:48;96136.09;;;7.05;100.00
22580;BME280;11456;47.030;15.396;2023-04-15T02:53:15;96139.97;;;7.03;100.00
22580;BME280;11456;47.030;15.396;2023-04-15T02:55:43;96136.78;;;7.15;100.00
22580;BME280;11456;47.030;15.396;2023-04-15T02:58:10;96135.25;;;7.13;100.00
22580;BME280;11456;47.030;15.396;2023-04-15T03:00:37;96142.13;;;7.07;100.00
22580;BME280;11456;47.030;15.396;2023-04-15T03:03:04;96141.13;;;7.16;100.00
22580;BME280;11456;47.030;15.396;2023-04-15T03:05:32;96137.09;;;7.12;100.00
22580;BME280;11456;47.030;15.396;2023-04-15T03:08:01;96141.47;;;7.21;100.00
22580;BME280;11456;47.030;15.396;2023-04-15T03:10:28;96132.44;;;7.14;100.00
22580;BME280;11456;47.030;15.396;2023-04-15T03:12:55;96142.09;;;7.23;100.00
22580;BME280;11456;47.030;15.396;2023-04-15T03:15:22;96139.09;;;7.27;100.00
22580;BME280;11456;47.030;15.396;2023-04-15T03:17:51;96137.44;;;7.25;100.00
22580;BME280;11456;47.030;15.396;2023-04-15T03:20:17;96141.78;;;7.27;100.00
22580;BME280;11456;47.030;15.396;2023-04-15T03:22:46;96148.47;;;7.31;100.00
22580;BME280;11456;47.030;15.396;2023-04-15T03:25:12;96145.31;;;7.27;100.00
22580;BME280;11456;47.030;15.396;2023-04-15T03:27:40;96138.44;;;7.33;100.00
22580;BME280;11456;47.030;15.396;2023-04-15T03:30:07;96149.47;;;7.38;100.00
22580;BME280;11456;47.030;15.396;2023-04-15T03:32:36;96148.81;;;7.28;100.00
22580;BME280;11456;47.030;15.396;2023-04-15T03:35:05;96157.16;;;7.33;100.00
22580;BME280;11456;47.030;15.396;2023-04-15T03:37:31;96149.47;;;7.38;100.00
22580;BME280;11456;47.030;15.396;2023-04-15T03:39:58;96141.09;;;7.41;100.00
22580;BME280;11456;47.030;15.396;2023-04-15T03:42:24;96153.50;;;7.42;100.00
22580;BME280;11456;47.030;15.396;2023-04-15T03:44:51;96143.09;;;7.39;100.00
22580;BME280;11456;47.030;15.396;2023-04-15T03:47:17;96145.78;;;7.39;100.00
22580;BME280;11456;47.030;15.396;2023-04-15T03:49:44;96144.78;;;7.40;100.00
22580;BME280;11456;47.030;15.396;2023-04-15T03:52:10;96146.47;;;7.49;100.00
22580;BME280;11456;47.030;15.396;2023-04-15T03:54:37;96153.47;;;7.50;100.00
22580;BME280;11456;47.030;15.396;2023-04-15T03:57:03;96151.81;;;7.49;100.00
22580;BME280;11456;47.030;15.396;2023-04-15T03:59:30;96151.81;;;7.49;100.00
22580;BME280;11456;47.030;15.396;2023-04-15T04:01:56;96147.47;;;7.48;100.00
22580;BME280;11456;47.030;15.396;2023-04-15T04:04:23;96150.13;;;7.48;100.00
22580;BME280;11456;47.030;15.396;2023-04-15T04:06:49;96142.75;;;7.50;100.00
22580;BME280;11456;47.030;15.396;2023-04-15T04:09:16;96137.38;;;7.50;100.00
22580;BME280;11456;47.030;15.396;2023-04-15T04:11:42;96147.63;;;7.46;100.00
22580;BME280;11456;47.030;15.396;2023-04-15T04:14:10;96150.97;;;7.48;100.00
22580;BME280;11456;47.030;15.396;2023-04-15T04:16:37;96156.50;;;7.55;100.00
22580;BME280;11456;47.030;15.396;2023-04-15T04:19:03;96156.81;;;7.52;100.00
22580;BME280;11456;47.030;15.396;2023-04-15T04:21:30;96158.50;;;7.53;100.00
22580;BME280;11456;47.030;15.396;2023-04-15T04:23:59;96160.16;;;7.54;100.00
22580;BME280;11456;47.030;15.396;2023-04-15T04:26:25;96161.50;;;7.58;100.00
22580;BME280;11456;47.030;15.396;2023-04-15T04:28:52;96166.00;;;7.49;100.00
22580;BME280;11456;47.030;15.396;2023-04-15T04:31:19;96162.53;;;7.49;100.00
22580;BME280;11456;47.030;15.396;2023-04-15T04:33:45;96164.53;;;7.47;100.00
22580;BME280;11456;47.030;15.396;2023-04-15T04:36:12;96168.69;;;7.49;100.00
22580;BME280;11456;47.030;15.396;2023-04-15T04:38:38;96167.53;;;7.60;100.00
22580;BME280;11456;47.030;15.396;2023-04-15T04:41:05;96172.56;;;7.55;100.00
22580;BME280;11456;47.030;15.396;2023-04-15T04:43:31;96174.56;;;7.61;100.00
22580;BME280;11456;47.030;15.396;2023-04-15T04:45:58;96173.03;;;7.58;100.00
22580;BME280;11456;47.030;15.396;2023-04-15T04:48:24;96170.00;;;7.70;100.00
22580;BME280;11456;47.030;15.396;2023-04-15T04:50:51;96168.63;;;7.82;100.00
22580;BME280;11456;47.030;15.396;2023-04-15T04:53:18;96174.13;;;7.88;100.00
22580;BME280;11456;47.030;15.396;2023-04-15T04:55:44;96179.19;;;7.91;100.00
22580;BME280;11456;47.030;15.396;2023-04-15T04:58:11;96176.47;;;7.99;100.00
22580;BME280;11456;47.030;15.396;2023-04-15T05:00:38;96177.94;;;8.10;100.00
22580;BME280;11456;47.030;15.396;2023-04-15T05:03:05;96182.16;;;7.96;100.00
22580;BME280;11456;47.030;15.396;2023-04-15T05:05:32;96193.41;;;8.00;100.00
22580;BME280;11456;47.030;15.396;2023-04-15T05:08:00;96188.03;;;8.00;100.00
22580;BME280;11456;47.030;15.396;2023-04-15T05:10:27;96194.41;;;7.91;100.00
22580;BME280;11456;47.030;15.396;2023-04-15T05:12:53;96194.56;;;7.97;100.00
22580;BME280;11456;47.030;15.396;2023-04-15T05:15:20;96202.47;;;7.91;100.00
22580;BME280;11456;47.030;15.396;2023-04-15T05:17:46;96203.31;;;7.83;100.00
22580;BME280;11456;47.030;15.396;2023-04-15T05:20:13;96199.63;;;7.84;100.00
22580;BME280;11456;47.030;15.396;2023-04-15T05:22:40;96200.97;;;7.80;100.00
22580;BME280;11456;47.030;15.396;2023-04-15T05:25:06;96203.63;;;7.88;100.00
22580;BME280;11456;47.030;15.396;2023-04-15T05:27:34;96202.63;;;7.89;100.00
22580;BME280;11456;47.030;15.396;2023-04-15T05:30:00;96210.00;;;7.87;100.00
22580;BME280;11456;47.030;15.396;2023-04-15T05:32:27;96207.81;;;7.99;100.00
22580;BME280;11456;47.030;15.396;2023-04-15T05:34:53;96209.97;;;8.03;100.00
22580;BME280;11456;47.030;15.396;2023-04-15T05:37:20;96216.00;;;7.97;100.00
22580;BME280;11456;47.030;15.396;2023-04-15T05:39:47;96218.31;;;8.09;100.00
22580;BME280;11456;47.030;15.396;2023-04-15T05:42:14;96219.00;;;8.02;100.00
22580;BME280;11456;47.030;15.396;2023-04-15T05:44:41;96227.72;;;8.04;100.00
22580;BME280;11456;47.030;15.396;2023-04-15T05:47:07;96229.75;;;7.94;100.00
22580;BME280;11456;47.030;15.396;2023-04-15T05:49:35;96236.63;;;7.97;100.00
22580;BME280;11456;47.030;15.396;2023-04-15T05:52:02;96239.44;;;8.03;100.00
22580;BME280;11456;47.030;15.396;2023-04-15T05:54:28;96237.41;;;8.14;100.00
22580;BME280;11456;47.030;15.396;2023-04-15T05:56:55;96240.44;;;8.19;100.00
22580;BME280;11456;47.030;15.396;2023-04-15T05:59:22;96239.38;;;8.28;100.00
22580;BME280;11456;47.030;15.396;2023-04-15T06:01:49;96241.41;;;8.34;100.00
22580;BME280;11456;47.030;15.396;2023-04-15T06:04:17;96242.69;;;8.46;100.00
22580;BME280;11456;47.030;15.396;2023-04-15T06:06:44;96249.59;;;8.40;100.00
22580;BME280;11456;47.030;15.396;2023-04-15T06:09:10;96244.50;;;8.54;100.00
22580;BME280;11456;47.030;15.396;2023-04-15T06:11:37;96252.31;;;8.71;100.00
22580;BME280;11456;47.030;15.396;2023-04-15T06:14:03;96253.38;;;8.62;100.00
22580;BME280;11456;47.030;15.396;2023-04-15T06:16:30;96255.75;;;8.57;100.00
22580;BME280;11456;47.030;15.396;2023-04-15T06:18:56;96257.06;;;8.61;100.00
22580;BME280;11456;47.030;15.396;2023-04-15T06:21:23;96264.25;;;8.69;100.00
22580;BME280;11456;47.030;15.396;2023-04-15T06:23:49;96269.25;;;8.72;98.69
22580;BME280;11456;47.030;15.396;2023-04-15T06:26:16;96270.19;;;8.56;99.82
22580;BME280;11456;47.030;15.396;2023-04-15T06:28:43;96258.31;;;8.81;99.72
22580;BME280;11456;47.030;15.396;2023-04-15T06:31:09;96274.91;;;8.85;99.43
22580;BME280;11456;47.030;15.396;2023-04-15T06:33:36;96275.66;;;9.02;98.59
22580;BME280;11456;47.030;15.396;2023-04-15T06:36:03;96275.31;;;9.05;97.74
22580;BME280;11456;47.030;15.396;2023-04-15T06:38:29;96273.88;;;9.17;97.42
22580;BME280;11456;47.030;15.396;2023-04-15T06:40:56;96276.34;;;9.27;97.96
22580;BME280;11456;47.030;15.396;2023-04-15T06:43:22;96276.88;;;9.22;97.42
22580;BME280;11456;47.030;15.396;2023-04-15T06:45:49;96277.97;;;9.36;96.10
22580;BME280;11456;47.030;15.396;2023-04-15T06:48:16;96281.88;;;9.02;96.29
22580;BME280;11456;47.030;15.396;2023-04-15T06:50:43;96289.41;;;9.07;97.19
22580;BME280;11456;47.030;15.396;2023-04-15T06:53:09;96292.38;;;9.12;95.96
22580;BME280;11456;47.030;15.396;2023-04-15T06:55:36;96294.72;;;9.15;95.94
22580;BME280;11456;47.030;15.396;2023-04-15T06:58:02;96299.88;;;8.94;95.88
22580;BME280;11456;47.030;15.396;2023-04-15T07:00:29;96297.22;;;8.85;94.72
22580;BME280;11456;47.030;15.396;2023-04-15T07:02:55;96303.88;;;8.98;96.10
22580;BME280;11456;47.030;15.396;2023-04-15T07:05:22;96305.50;;;9.07;96.80
22580;BME280;11456;47.030;15.396;2023-04-15T07:07:49;96306.78;;;9.19;96.11
22580;BME280;11456;47.030;15.396;2023-04-15T07:10:15;96310.06;;;9.29;95.60
22580;BME280;11456;47.030;15.396;2023-04-15T07:12:42;96316.53;;;9.88;93.70
22580;BME280;11456;47.030;15.396;2023-04-15T07:15:08;96320.72;;;9.45;93.55
22580;BME280;11456;47.030;15.396;2023-04-15T07:17:35;96332.53;;;9.36;95.18
22580;BME280;11456;47.030;15.396;2023-04-15T07:20:02;96323.91;;;9.18;94.76
22580;BME280;11456;47.030;15.396;2023-04-15T07:22:30;96318.91;;;9.15;95.46
22580;BME280;11456;47.030;15.396;2023-04-15T07:24:56;96325.41;;;9.20;95.92
22580;BME280;11456;47.030;15.396;2023-04-15T07:27:23;96333.25;;;9.30;95.16
22580;BME280;11456;47.030;15.396;2023-04-15T07:29:49;96333.16;;;9.46;94.03
22580;BME280;11456;47.030;15.396;2023-04-15T07:32:17;96331.22;;;9.55;93.78
22580;BME280;11456;47.030;15.396;2023-04-15T07:34:43;96338.53;;;9.69;91.89
22580;BME280;11456;47.030;15.396;2023-04-15T07:37:10;96335.31;;;9.51;92.86
22580;BME280;11456;47.030;15.396;2023-04-15T07:39:36;96343.06;;;9.69;92.16
22580;BME280;11456;47.030;15.396;2023-04-15T07:42:03;96336.47;;;9.48;92.61
22580;BME280;11456;47.030;15.396;2023-04-15T07:44:29;96340.75;;;9.35;92.81
22580;BME280;11456;47.030;15.396;2023-04-15T07:46:56;96336.94;;;9.29;93.15
22580;BME280;11456;47.030;15.396;2023-04-15T07:49:23;96338.16;;;9.49;93.33
22580;BME280;11456;47.030;15.396;2023-04-15T07:51:49;96330.97;;;9.42;93.57
22580;BME280;11456;47.030;15.396;2023-04-15T07:54:16;96339.25;;;9.40;94.05
22580;BME280;11456;47.030;15.396;2023-04-15T07:56:43;96336.19;;;9.43;94.67
22580;BME280;11456;47.030;15.396;2023-04-15T07:59:09;96336.16;;;9.20;93.10
22580;BME280;11456;47.030;15.396;2023-04-15T08:01:36;96342.34;;;9.75;92.30
22580;BME280;11456;47.030;15.396;2023-04-15T08:04:04;96339.94;;;9.80;92.37
22580;BME280;11456;47.030;15.396;2023-04-15T08:06:30;96337.88;;;9.90;89.17
22580;BME280;11456;47.030;15.396;2023-04-15T08:08:58;96346.53;;;10.00;89.90
22580;BME280;11456;47.030;15.396;2023-04-15T08:11:24;96348.69;;;10.04;89.64
22580;BME280;11456;47.030;15.396;2023-04-15T08:13:51;96363.28;;;9.64;90.93
22580;BME280;11456;47.030;15.396;2023-04-15T08:16:21;96367.94;;;9.71;90.88
22580;BME280;11456;47.030;15.396;2023-04-15T08:18:49;96362.06;;;9.90;91.59
22580;BME280;11456;47.030;15.396;2023-04-15T08:21:16;96369.38;;;10.04;91.00
22580;BME280;11456;47.030;15.396;2023-04-15T08:23:47;96366.75;;;10.19;89.64
22580;BME280;11456;47.030;15.396;2023-04-15T08:26:15;96370.69;;;10.08;90.27
22580;BME280;11456;47.030;15.396;2023-04-15T08:28:43;96370.09;;;9.98;90.05
22580;BME280;11456;47.030;15.396;2023-04-15T08:31:09;96371.72;;;10.44;88.55
22580;BME280;11456;47.030;15.396;2023-04-15T08:33:36;96376.97;;;10.23;88.34
22580;BME280;11456;47.030;15.396;2023-04-15T08:36:03;96373.88;;;10.49;87.11
22580;BME280;11456;47.030;15.396;2023-04-15T08:38:29;96388.06;;;10.58;84.98
22580;BME280;11456;47.030;15.396;2023-04-15T08:40:57;96390.06;;;10.26;85.19
22580;BME280;11456;47.030;15.396;2023-04-15T08:43:28;96382.78;;;9.58;87.84
22580;BME280;11456;47.030;15.396;2023-04-15T08:45:58;96396.31;;;9.96;88.54
22580;BME280;11456;47.030;15.396;2023-04-15T08:48:31;96389.16;;;10.34;86.11
22580;BME280;11456;47.030;15.396;2023-04-15T08:50:58;96390.44;;;10.23;86.22
22580;BME280;11456;47.030;15.396;2023-04-15T08:53:25;96386.28;;;10.50;83.78
22580;BME280;11456;47.030;15.396;2023-04-15T08:55:51;96394.59;;;10.78;83.27
22580;BME280;11456;47.030;15.396;2023-04-15T08:58:21;96398.13;;;10.64;85.65
22580;BME280;11456;47.030;15.396;2023-04-15T09:00:49;96393.97;;;10.38;85.13
22580;BME280;11456;47.030;15.396;2023-04-15T09:03:16;96392.50;;;10.88;83.21
22580;BME280;11456;47.030;15.396;2023-04-15T09:05:43;96388.97;;;10.35;88.63
22580;BME280;11456;47.030;15.396;2023-04-15T09:08:10;96399.25;;;10.09;86.98
22580;BME280;11456;47.030;15.396;2023-04-15T09:10:36;96398.88;;;10.12;87.35
22580;BME280;11456;47.030;15.396;2023-04-15T09:13:03;96403.69;;;10.25;86.46
22580;BME280;11456;47.030;15.396;2023-04-15T09:15:29;96401.41;;;10.36;84.87
22580;BME280;11456;47.030;15.396;2023-04-15T09:17:58;96387.38;;;10.78;83.31
22580;BME280;11456;47.030;15.396;2023-04-15T09:20:24;96399.78;;;10.65;83.12
22580;BME280;11456;47.030;15.396;2023-04-15T09:22:51;96404.63;;;10.55;81.65
22580;BME280;11456;47.030;15.396;2023-04-15T09:27:48;96399.47;;;11.12;81.50
22580;BME280;11456;47.030;15.396;2023-04-15T09:30:15;96404.94;;;10.74;84.17
22580;BME280;11456;47.030;15.396;2023-04-15T09:35:37;96401.63;;;10.50;84.27
22580;BME280;11456;47.030;15.396;2023-04-15T09:38:05;96410.78;;;10.78;82.70
22580;BME280;11456;47.030;15.396;2023-04-15T09:40:33;96408.56;;;10.96;82.73
22580;BME280;11456;47.030;15.396;2023-04-15T09:43:00;96402.28;;;11.69;80.64
22580;BME280;11456;47.030;15.396;2023-04-15T09:45:30;96413.16;;;11.61;80.87
22580;BME280;11456;47.030;15.396;2023-04-15T09:47:57;96412.50;;;11.59;81.29
22580;BME280;11456;47.030;15.396;2023-04-15T09:50:28;96406.00;;;11.53;77.78
22580;BME280;11456;47.030;15.396;2023-04-15T09:52:54;96406.53;;;11.13;77.28
22580;BME280;11456;47.030;15.396;2023-04-15T09:55:21;96409.00;;;11.44;76.75
22580;BME280;11456;47.030;15.396;2023-04-15T09:57:48;96414.50;;;11.36;78.88
22580;BME280;11456;47.030;15.396;2023-04-15T10:00:14;96417.09;;;11.44;80.05
22580;BME280;11456;47.030;15.396;2023-04-15T10:02:41;96417.19;;;11.50;79.89
22580;BME280;11456;47.030;15.396;2023-04-15T10:05:13;96423.94;;;12.12;79.36
22580;BME280;11456;47.030;15.396;2023-04-15T10:07:39;96420.94;;;12.21;78.12
22580;BME280;11456;47.030;15.396;2023-04-15T10:10:08;96421.69;;;12.15;78.14
22580;BME280;11456;47.030;15.396;2023-04-15T10:12:36;96426.28;;;11.64;80.11
22580;BME280;11456;47.030;15.396;2023-04-15T10:15:04;96417.19;;;12.01;78.48
22580;BME280;11456;47.030;15.396;2023-04-15T10:17:31;96419.94;;;12.50;76.84
22580;BME280;11456;47.030;15.396;2023-04-15T10:20:03;96414.53;;;12.50;77.30
22580;BME280;11456;47.030;15.396;2023-04-15T10:22:30;96422.38;;;12.24;75.13
22580;BME280;11456;47.030;15.396;2023-04-15T10:24:58;96424.69;;;12.05;73.76
22580;BME280;11456;47.030;15.396;2023-04-15T10:27:26;96423.34;;;12.16;73.78
22580;BME280;11456;47.030;15.396;2023-04-15T10:29:53;96428.16;;;11.99;76.74
22580;BME280;11456;47.030;15.396;2023-04-15T10:32:20;96426.09;;;12.65;71.94
22580;BME280;11456;47.030;15.396;2023-04-15T10:34:48;96429.88;;;12.22;71.25
22580;BME280;11456;47.030;15.396;2023-04-15T10:37:19;96436.53;;;11.10;74.71
22580;BME280;11456;47.030;15.396;2023-04-15T10:39:46;96426.22;;;11.13;76.72
22580;BME280;11456;47.030;15.396;2023-04-15T10:42:13;96425.13;;;11.88;78.89
22580;BME280;11456;47.030;15.396;2023-04-15T10:44:44;96423.16;;;12.39;73.09
22580;BME280;11456;47.030;15.396;2023-04-15T10:47:14;96429.34;;;12.33;74.52
22580;BME280;11456;47.030;15.396;2023-04-15T10:49:48;96430.41;;;11.96;72.88
22580;BME280;11456;47.030;15.396;2023-04-15T10:52:22;96427.13;;;12.00;72.59
22580;BME280;11456;47.030;15.396;2023-04-15T10:54:49;96435.00;;;11.66;73.52
22580;BME280;11456;47.030;15.396;2023-04-15T10:57:20;96434.78;;;11.32;74.41
22580;BME280;11456;47.030;15.396;2023-04-15T11:02:39;96433.06;;;11.60;78.90
22580;BME280;11456;47.030;15.396;2023-04-15T11:05:07;96439.97;;;11.77;75.22
22580;BME280;11456;47.030;15.396;2023-04-15T11:10:01;96435.78;;;11.45;74.07
22580;BME280;11456;47.030;15.396;2023-04-15T11:12:36;96445.81;;;11.37;74.79
22580;BME280;11456;47.030;15.396;2023-04-15T11:17:48;96440.09;;;11.90;73.58
22580;BME280;11456;47.030;15.396;2023-04-15T11:20:17;96435.75;;;12.11;72.25
22580;BME280;11456;47.030;15.396;2023-04-15T11:22:50;96442.56;;;11.56;73.74
22580;BME280;11456;47.030;15.396;2023-04-15T11:25:23;96444.53;;;11.18;74.32
22580;BME280;11456;47.030;15.396;2023-04-15T11:27:50;96443.56;;;11.70;73.08
22580;BME280;11456;47.030;15.396;2023-04-15T11:30:24;96434.41;;;12.42;69.95
22580;BME280;11456;47.030;15.396;2023-04-15T11:32:51;96435.22;;;12.00;73.70
22580;BME280;11456;47.030;15.396;2023-04-15T11:35:18;96442.72;;;11.69;72.42
22580;BME280;11456;47.030;15.396;2023-04-15T11:37:45;96438.09;;;11.63;74.51
22580;BME280;11456;47.030;15.396;2023-04-15T11:40:12;96443.84;;;12.32;70.57
22580;BME280;11456;47.030;15.396;2023-04-15T11:42:40;96442.19;;;12.31;72.21
22580;BME280;11456;47.030;15.396;2023-04-15T11:45:15;96433.81;;;12.04;73.17
22580;BME280;11456;47.030;15.396;2023-04-15T11:47:41;96446.78;;;11.65;74.19
22580;BME280;11456;47.030;15.396;2023-04-15T11:50:15;96437.78;;;11.73;74.02
22580;BME280;11456;47.030;15.396;2023-04-15T11:52:55;96443.09;;;11.66;74.78
22580;BME280;11456;47.030;15.396;2023-04-15T11:55:22;96445.34;;;11.77;72.52
22580;BME280;11456;47.030;15.396;2023-04-15T11:58:12;96443.66;;;11.76;72.29
22580;BME280;11456;47.030;15.396;2023-04-15T12:00:36;96444.19;;;11.86;71.74
22580;BME280;11456;47.030;15.396;2023-04-15T12:03:13;96447.72;;;11.72;72.38
22580;BME280;11456;47.030;15.396;2023-04-15T12:08:25;96447.84;;;11.49;72.23
22580;BME280;11456;47.030;15.396;2023-04-15T12:10:57;96441.75;;;11.91;71.85
22580;BME280;11456;47.030;15.396;2023-04-15T12:13:26;96446.38;;;11.97;71.70
22580;BME280;11456;47.030;15.396;2023-04-15T12:15:54;96441.28;;;12.02;72.11
22580;BME280;11456;47.030;15.396;2023-04-15T12:18:21;96444.28;;;11.93;70.53
22580;BME280;11456;47.030;15.396;2023-04-15T12:20:50;96449.88;;;12.13;71.06
22580;BME280;11456;47.030;15.396;2023-04-15T12:23:20;96451.25;;;11.87;71.95
22580;BME280;11456;47.030;15.396;2023-04-15T12:25:50;96452.16;;;12.09;70.47
22580;BME280;11456;47.030;15.396;2023-04-15T12:28:17;96451.84;;;12.40;69.89
22580;BME280;11456;47.030;15.396;2023-04-15T12:30:49;96458.19;;;11.75;70.20
22580;BME280;11456;47.030;15.396;2023-04-15T12:33:19;96452.16;;;12.73;67.84
22580;BME280;11456;47.030;15.396;2023-04-15T12:35:46;96460.19;;;12.66;65.65
22580;BME280;11456;47.030;15.396;2023-04-15T12:38:12;96463.53;;;12.47;66.85
22580;BME280;11456;47.030;15.396;2023-04-15T12:40:39;96456.28;;;12.26;67.48
22580;BME280;11456;47.030;15.396;2023-04-15T12:43:05;96460.06;;;12.32;68.19
22580;BME280;11456;47.030;15.396;2023-04-15T12:45:33;96459.25;;;11.95;69.70
22580;BME280;11456;47.030;15.396;2023-04-15T12:47:59;96463.31;;;12.70;68.99
22580;BME280;11456;47.030;15.396;2023-04-15T12:50:26;96458.06;;;13.11;67.46
22580;BME280;11456;47.030;15.396;2023-04-15T12:52:52;96457.66;;;13.14;68.33
22580;BME280;11456;47.030;15.396;2023-04-15T12:55:19;96471.19;;;13.14;69.89
22580;BME280;11456;47.030;15.396;2023-04-15T12:57:45;96469.13;;;13.16;68.15
22580;BME280;11456;47.030;15.396;2023-04-15T13:00:12;96474.47;;;13.09;67.40
22580;BME280;11456;47.030;15.396;2023-04-15T13:02:39;96475.09;;;13.39;66.06
22580;BME280;11456;47.030;15.396;2023-04-15T13:05:05;96475.44;;;13.02;64.37
22580;BME280;11456;47.030;15.396;2023-04-15T13:07:32;96479.16;;;13.22;66.27
22580;BME280;11456;47.030;15.396;2023-04-15T13:09:59;96483.53;;;13.23;65.09